Time;durP1;ratioP1;P1;durP2;ratioP2;P2;SDS_P1;SDS_P2;PMS_P1;PMS_P2;Temp;Humidity;BMP_temperature;BMP_pressure;BME280_temperature;BME280_humidity;BME280_pressure;Samples;Min_cycle;Max_cycle;Signal;HPM_P1;HPM_P2
2022/02/01 05:22:02;;;;;;;6.60;2.03;;;6.70;90.00;;;;;;5094772;27;20394;-75
2022/02/01 05:24:28;;;;;;;13.52;3.17;;;6.90;90.00;;;;;;5093462;28;20114;-73
2022/02/01 05:26:55;;;;;;;11.15;3.00;;;7.30;89.40;;;;;;5094826;28;20118;-73
2022/02/01 05:29:22;;;;;;;8.55;3.13;;;7.60;88.50;;;;;;5093442;28;20374;-73
2022/02/01 05:31:49;;;;;;;8.23;2.33;;;7.90;87.70;;;;;;5094695;28;20020;-73
2022/02/01 05:34:15;;;;;;;15.60;3.42;;;8.10;86.90;;;;;;5094586;28;20024;-73
2022/02/01 05:36:41;;;;;;;9.68;3.30;;;8.30;86.20;;;;;;5093076;28;20020;-72
2022/02/01 05:39:25;;;;;;;13.32;3.50;;;8.40;85.40;;;;;;5093028;28;20368;-73
2022/02/01 05:41:52;;;;;;;14.95;3.08;;;8.50;85.30;;;;;;5092796;28;20039;-74
2022/02/01 18:34:30;;;;;;;4.72;1.80;;;9.80;91.00;;;;;;5062003;28;20428;-76
2022/02/01 18:37:01;;;;;;;8.68;2.47;;;9.90;90.80;;;;;;5046230;28;20032;-76
2022/02/01 18:39:35;;;;;;;6.88;2.28;;;10.20;90.30;;;;;;5052372;28;20018;-76
2022/02/01 18:42:05;;;;;;;6.32;2.80;;;10.50;89.40;;;;;;5053379;28;20033;-79
2022/02/01 18:44:31;;;;;;;5.72;2.35;;;10.80;88.50;;;;;;5052486;28;20060;-75
2022/02/01 18:47:00;;;;;;;3.40;2.08;;;10.90;87.90;;;;;;5051204;28;20037;-77
2022/02/01 18:52:08;;;;;;;7.82;2.42;;;11.10;86.60;;;;;;5062357;28;20021;-80
2022/02/01 18:54:50;;;;;;;6.00;2.33;;;11.20;86.50;;;;;;5055885;28;20028;-79
2022/02/01 18:57:23;;;;;;;3.72;2.40;;;11.20;86.40;;;;;;5053859;28;20033;-78
2022/02/01 19:00:07;;;;;;;5.20;2.22;;;11.20;86.10;;;;;;5053071;28;20025;-78
2022/02/01 19:08:30;;;;;;;5.40;2.28;;;11.20;86.10;;;;;;5053525;28;20025;-74
2022/02/01 19:13:46;;;;;;;6.15;2.42;;;11.30;85.30;;;;;;5053194;28;20094;-78
2022/02/01 19:16:15;;;;;;;6.82;2.38;;;11.30;85.70;;;;;;5051488;28;20032;-77
2022/02/01 19:18:43;;;;;;;3.83;1.80;;;11.30;85.60;;;;;;5052893;28;20010;-75
2022/02/01 19:21:09;;;;;;;6.43;2.55;;;11.30;85.60;;;;;;5051792;28;20112;-74
2022/02/01 19:23:34;;;;;;;3.78;2.13;;;11.30;85.40;;;;;;5051590;28;20052;-78
2022/02/01 19:26:04;;;;;;;7.32;2.75;;;11.40;85.50;;;;;;5051947;28;20120;-75
2022/02/01 19:28:30;;;;;;;4.03;2.40;;;11.40;85.50;;;;;;5051924;28;20032;-79
2022/02/01 19:31:05;;;;;;;3.58;2.35;;;11.40;85.10;;;;;;5052305;28;20022;-77
2022/02/01 19:33:37;;;;;;;5.30;2.97;;;11.40;85.50;;;;;;5052236;28;20084;-82
2022/02/01 19:36:08;;;;;;;9.32;3.15;;;11.50;85.30;;;;;;5051913;28;20025;-74
2022/02/01 19:38:35;;;;;;;8.50;3.42;;;11.50;85.30;;;;;;5052057;28;20070;-79
2022/02/01 19:41:09;;;;;;;5.00;2.90;;;11.60;85.00;;;;;;5053018;28;20029;-76
2022/02/01 19:43:45;;;;;;;4.10;2.13;;;11.50;85.10;;;;;;5053639;28;20033;-77
2022/02/01 19:46:13;;;;;;;8.75;2.95;;;11.50;85.20;;;;;;5038997;28;20453;-74
2022/02/01 19:48:42;;;;;;;5.20;2.15;;;11.40;85.40;;;;;;5033391;28;20958;-77
2022/02/01 19:51:10;;;;;;;3.20;2.10;;;11.40;85.40;;;;;;5039247;28;20033;-75
2022/02/01 19:53:36;;;;;;;3.63;2.45;;;11.40;85.70;;;;;;5039796;28;20139;-75
2022/02/01 19:56:05;;;;;;;6.00;2.78;;;11.20;86.00;;;;;;5038588;28;20030;-75
2022/02/01 19:58:40;;;;;;;7.13;2.97;;;11.20;86.40;;;;;;5039054;28;20072;-75
2022/02/01 20:01:07;;;;;;;5.65;2.67;;;11.30;86.30;;;;;;5069595;28;20086;-74
2022/02/01 20:03:34;;;;;;;8.23;2.88;;;11.30;85.90;;;;;;5038751;28;20040;-75
2022/02/01 20:06:02;;;;;;;10.52;3.05;;;11.40;85.70;;;;;;5027863;28;20026;-75
2022/02/01 20:08:31;;;;;;;4.18;2.53;;;11.50;85.80;;;;;;5038139;28;20410;-75
2022/02/01 20:11:01;;;;;;;8.35;2.65;;;11.40;85.40;;;;;;5039365;28;20089;-75
2022/02/01 20:13:28;;;;;;;4.20;2.80;;;11.40;85.60;;;;;;5036064;28;20057;-76
2022/02/01 20:15:54;;;;;;;8.30;2.70;;;11.50;85.70;;;;;;5037776;28;20033;-75
2022/02/01 20:18:20;;;;;;;4.25;2.53;;;11.50;85.60;;;;;;5038588;28;20083;-76
2022/02/01 20:20:46;;;;;;;5.80;2.42;;;11.40;85.50;;;;;;5044591;28;20096;-75
2022/02/01 20:23:13;;;;;;;8.07;2.80;;;11.40;85.60;;;;;;5037369;28;20022;-77
2022/02/01 20:25:39;;;;;;;6.20;2.67;;;11.50;85.70;;;;;;5039539;28;20022;-78
2022/02/01 20:28:06;;;;;;;6.35;2.67;;;11.40;85.60;;;;;;5034504;28;20479;-78
2022/02/01 20:30:32;;;;;;;6.05;2.50;;;11.40;85.60;;;;;;5032515;28;20086;-78
2022/02/01 20:33:08;;;;;;;7.78;2.17;;;11.30;86.00;;;;;;5031972;28;20397;-78
2022/02/01 20:35:34;;;;;;;5.03;2.72;;;11.30;86.10;;;;;;5037055;28;20050;-79
2022/02/01 20:38:03;;;;;;;5.78;2.50;;;11.20;86.20;;;;;;5038913;28;20033;-79
2022/02/01 20:40:32;;;;;;;8.65;2.05;;;11.30;86.20;;;;;;5042017;28;20025;-79
2022/02/01 20:42:59;;;;;;;3.73;2.20;;;11.30;86.10;;;;;;5037834;28;20030;-80
2022/02/01 20:45:28;;;;;;;3.50;1.92;;;11.30;86.20;;;;;;5036325;28;20459;-79
2022/02/01 20:47:57;;;;;;;3.00;2.13;;;11.30;86.00;;;;;;5052735;28;20014;-83
2022/02/01 20:50:23;;;;;;;4.95;2.60;;;11.30;86.40;;;;;;5031334;28;20030;-78
2022/02/01 20:52:53;;;;;;;3.75;1.92;;;11.30;86.30;;;;;;5037288;28;20346;-79
2022/02/01 20:55:19;;;;;;;4.20;2.38;;;11.40;86.20;;;;;;5037054;28;20023;-78
2022/02/01 20:57:45;;;;;;;8.02;2.80;;;11.50;86.00;;;;;;5034929;28;20029;-77
2022/02/01 21:00:13;;;;;;;4.93;2.33;;;11.40;86.00;;;;;;5034382;28;20083;-78
2022/02/01 21:02:40;;;;;;;6.78;2.67;;;11.50;86.00;;;;;;5034943;28;20025;-79
2022/02/01 21:05:07;;;;;;;6.03;2.35;;;11.40;86.20;;;;;;5034758;28;20036;-78
2022/02/01 21:07:33;;;;;;;6.93;2.80;;;11.40;85.90;;;;;;5035000;28;20006;-78
2022/02/01 21:10:00;;;;;;;6.47;3.20;;;11.50;85.90;;;;;;5035162;28;20054;-78
2022/02/01 21:12:26;;;;;;;6.75;2.83;;;11.50;85.80;;;;;;5036371;28;20023;-79
2022/02/01 21:14:52;;;;;;;8.88;2.40;;;11.50;85.40;;;;;;5049510;28;20085;-82
2022/02/01 21:17:19;;;;;;;4.43;2.17;;;11.40;85.80;;;;;;5035457;28;20025;-77
2022/02/01 21:19:46;;;;;;;4.47;2.03;;;11.40;85.70;;;;;;5038398;28;20028;-79
2022/02/01 21:22:13;;;;;;;5.63;2.38;;;11.30;85.90;;;;;;5026155;28;20144;-78
2022/02/01 21:24:39;;;;;;;3.50;1.80;;;11.40;85.60;;;;;;5031865;28;20063;-77
2022/02/01 21:27:05;;;;;;;5.97;1.77;;;11.30;85.70;;;;;;5036638;28;20955;-77
2022/02/01 21:29:33;;;;;;;2.05;1.48;;;11.20;85.30;;;;;;5033822;28;20029;-76
2022/02/01 21:31:59;;;;;;;4.32;1.75;;;11.30;85.70;;;;;;5036081;28;20010;-76
2022/02/01 21:34:26;;;;;;;2.28;1.33;;;11.30;85.40;;;;;;5025333;28;20092;-78
2022/02/01 21:36:51;;;;;;;2.90;1.63;;;11.30;85.40;;;;;;5029698;28;20021;-78
2022/02/01 21:39:17;;;;;;;2.45;1.48;;;11.30;85.50;;;;;;5025361;28;20032;-78
2022/02/01 21:41:43;;;;;;;4.53;1.85;;;11.30;85.50;;;;;;5026863;28;20044;-78
2022/02/01 21:44:10;;;;;;;2.47;1.80;;;11.40;85.40;;;;;;5019094;28;20026;-77
2022/02/01 21:46:36;;;;;;;2.58;1.85;;;11.40;85.60;;;;;;5025262;28;20488;-78
2022/02/01 21:49:02;;;;;;;4.65;2.97;;;11.40;85.70;;;;;;5026654;28;20073;-78
2022/02/01 21:51:29;;;;;;;4.22;2.70;;;11.50;85.50;;;;;;5024403;28;20052;-78
2022/02/01 21:53:56;;;;;;;9.70;2.42;;;11.50;85.40;;;;;;5030809;28;20411;-78
2022/02/01 21:56:22;;;;;;;4.22;2.10;;;11.40;85.50;;;;;;5027499;28;20451;-78
2022/02/01 21:58:48;;;;;;;5.70;2.47;;;11.30;85.50;;;;;;5024869;28;20036;-78
2022/02/01 22:01:14;;;;;;;3.92;2.20;;;11.30;85.80;;;;;;5027288;28;20036;-78
2022/02/01 22:03:39;;;;;;;6.40;2.90;;;11.30;85.60;;;;;;5024962;28;20059;-78
2022/02/01 22:06:07;;;;;;;5.93;2.60;;;11.30;85.70;;;;;;5026492;28;20013;-78
2022/02/01 22:08:33;;;;;;;3.75;2.30;;;11.30;85.90;;;;;;5035078;28;20395;-79
2022/02/01 22:11:02;;;;;;;3.75;2.53;;;11.30;85.90;;;;;;5034150;28;20021;-78
2022/02/01 22:13:29;;;;;;;7.23;3.00;;;11.30;85.80;;;;;;5034316;28;20040;-78
2022/02/01 22:15:56;;;;;;;4.65;2.67;;;11.30;85.90;;;;;;5034053;28;20025;-78
2022/02/01 22:18:22;;;;;;;9.23;3.55;;;11.40;85.60;;;;;;5035176;28;20497;-78
2022/02/01 22:20:48;;;;;;;9.95;3.80;;;11.40;85.60;;;;;;5036856;28;20032;-78
2022/02/01 22:23:14;;;;;;;7.57;3.90;;;11.40;85.60;;;;;;5035984;28;20021;-78
2022/02/01 22:25:41;;;;;;;6.53;4.20;;;11.50;85.70;;;;;;5036199;28;20025;-78
2022/02/01 22:28:07;;;;;;;9.50;3.65;;;11.50;85.40;;;;;;5036431;28;20024;-78
2022/02/01 22:30:33;;;;;;;8.60;3.55;;;11.50;85.40;;;;;;5036619;28;20029;-79
2022/02/01 22:33:05;;;;;;;8.60;3.45;;;11.50;85.60;;;;;;5036061;28;20045;-78
2022/02/01 22:35:32;;;;;;;6.15;3.80;;;11.40;85.80;;;;;;5036326;28;20033;-78
2022/02/01 22:37:58;;;;;;;5.75;3.15;;;11.50;85.90;;;;;;5036362;28;20018;-78
2022/02/01 22:40:23;;;;;;;6.22;3.40;;;11.40;85.80;;;;;;5036533;28;20028;-78
2022/02/01 22:42:51;;;;;;;5.07;3.03;;;11.40;86.10;;;;;;5036642;28;20488;-78
2022/02/01 22:45:18;;;;;;;7.10;3.30;;;11.40;86.20;;;;;;5036733;28;20025;-78
2022/02/01 22:47:44;;;;;;;5.38;2.83;;;11.40;86.20;;;;;;5036649;28;20060;-78
2022/02/01 22:50:09;;;;;;;6.88;3.55;;;11.50;86.10;;;;;;5036625;28;20086;-78
2022/02/01 22:52:35;;;;;;;6.25;3.95;;;11.50;86.00;;;;;;5036336;28;20055;-79
2022/02/01 22:55:02;;;;;;;6.15;3.55;;;11.50;86.00;;;;;;5036697;28;20029;-78
2022/02/01 22:57:27;;;;;;;7.78;4.10;;;11.40;86.30;;;;;;5036384;28;20045;-78
2022/02/01 22:59:54;;;;;;;7.15;4.03;;;11.50;86.10;;;;;;5036581;28;20487;-78
2022/02/01 23:02:19;;;;;;;5.40;3.67;;;11.50;86.00;;;;;;5036262;28;20028;-78
2022/02/01 23:04:45;;;;;;;7.22;3.85;;;11.50;86.00;;;;;;5036704;28;20454;-78
2022/02/01 23:07:13;;;;;;;9.95;4.22;;;11.50;85.90;;;;;;5036194;28;20079;-78
2022/02/01 23:09:56;;;;;;;7.60;4.07;;;11.40;86.20;;;;;;5036772;28;20026;-78
2022/02/01 23:17:47;;;;;;;6.60;3.88;;;11.50;85.90;;;;;;5016914;28;20033;-78
2022/02/01 23:20:18;;;;;;;8.75;3.75;;;11.60;85.90;;;;;;5037251;28;20024;-78
2022/02/01 23:22:44;;;;;;;5.95;3.75;;;11.50;86.00;;;;;;5039769;28;20026;-78
2022/02/01 23:25:12;;;;;;;6.88;3.95;;;11.60;86.00;;;;;;5040326;28;20067;-78
2022/02/01 23:27:40;;;;;;;7.28;4.15;;;11.60;85.70;;;;;;5040036;28;20064;-78
2022/02/01 23:30:07;;;;;;;6.05;3.45;;;11.60;85.80;;;;;;5040198;28;20496;-78
2022/02/01 23:44:11;;;;;;;4.65;3.42;;;11.50;86.40;;;;;;5039630;28;20028;-78
2022/02/01 23:49:17;;;;;;;6.03;3.20;;;11.50;86.30;;;;;;5037418;28;20013;-78
2022/02/01 23:51:42;;;;;;;3.88;2.85;;;11.50;86.20;;;;;;5039064;28;20048;-78
2022/02/01 23:54:08;;;;;;;5.25;2.90;;;11.60;86.00;;;;;;5039356;28;20036;-78
2022/02/01 23:56:36;;;;;;;4.80;2.83;;;11.60;85.80;;;;;;5039531;28;20108;-78
2022/02/01 23:59:26;;;;;;;4.88;2.80;;;11.50;85.90;;;;;;5039319;28;20035;-79
